Time;durP1;ratioP1;P1;durP2;ratioP2;P2;SDS_P1;SDS_P2;PMS_P1;PMS_P2;Temp;Humidity;BMP_temperature;BMP_pressure;BME280_temperature;BME280_humidity;BME280_pressure;Samples;Min_cycle;Max_cycle;Signal;HPM_P1;HPM_P2
2022/07/15 00:00:57;;;;;;;4.00;3.47;;;22.10;57.40;;;;;;5095487;28;20450;-69
2022/07/15 00:03:24;;;;;;;4.00;3.60;;;22.10;57.30;;;;;;5095448;28;20471;-69
2022/07/15 00:05:51;;;;;;;4.10;3.80;;;22.00;57.00;;;;;;5095319;28;20468;-70
2022/07/15 00:08:18;;;;;;;3.93;3.63;;;22.00;56.60;;;;;;5095720;28;20439;-69
2022/07/15 00:10:45;;;;;;;4.07;3.77;;;22.00;57.00;;;;;;5095396;28;20471;-69
2022/07/15 00:13:11;;;;;;;4.03;3.73;;;22.10;56.40;;;;;;5095307;28;20467;-69
2022/07/15 00:15:40;;;;;;;4.03;3.67;;;22.10;56.70;;;;;;5095046;28;20959;-69
2022/07/15 00:18:06;;;;;;;4.23;3.83;;;22.10;56.50;;;;;;5095144;28;20889;-68
2022/07/15 00:20:34;;;;;;;3.70;3.40;;;21.90;56.70;;;;;;5095101;28;20467;-69
2022/07/15 00:23:02;;;;;;;4.30;3.97;;;21.80;56.90;;;;;;5095146;28;20558;-69
2022/07/15 00:25:29;;;;;;;3.47;3.20;;;21.60;56.60;;;;;;5094962;28;20447;-69
2022/07/15 00:27:58;;;;;;;3.87;3.53;;;21.60;58.60;;;;;;5095093;28;20432;-69
2022/07/15 00:30:30;;;;;;;4.07;3.53;;;21.70;58.10;;;;;;5094992;28;20806;-69
2022/07/15 00:33:00;;;;;;;4.40;3.70;;;21.60;58.80;;;;;;5094958;28;20471;-69
2022/07/15 00:35:27;;;;;;;4.90;3.83;;;21.70;58.20;;;;;;5094755;28;20499;-69
2022/07/15 00:37:54;;;;;;;3.57;3.23;;;21.80;58.50;;;;;;5094765;28;20527;-69
2022/07/15 00:40:20;;;;;;;5.57;4.00;;;21.80;58.70;;;;;;5094848;28;20479;-68
2022/07/15 00:42:48;;;;;;;5.07;4.53;;;21.90;58.40;;;;;;5094409;28;20499;-69
2022/07/15 00:45:16;;;;;;;4.07;3.70;;;21.90;58.70;;;;;;5094656;28;20471;-69
2022/07/15 00:47:44;;;;;;;4.00;3.70;;;21.90;58.90;;;;;;5094570;28;20486;-69
2022/07/15 00:50:13;;;;;;;4.27;3.87;;;21.90;59.00;;;;;;5094391;28;20482;-69
2022/07/15 00:52:41;;;;;;;4.13;3.80;;;21.90;58.90;;;;;;5094395;28;20554;-69
2022/07/15 00:55:11;;;;;;;4.57;3.60;;;21.90;58.30;;;;;;5094426;28;20864;-68
2022/07/15 00:57:41;;;;;;;3.87;3.57;;;21.80;59.40;;;;;;5094402;28;20482;-69
2022/07/15 01:00:10;;;;;;;3.73;3.43;;;21.80;58.70;;;;;;5094711;28;20502;-69
2022/07/15 01:02:38;;;;;;;4.50;4.10;;;21.80;58.90;;;;;;5094488;28;20822;-69
2022/07/15 01:05:10;;;;;;;4.33;4.00;;;21.70;59.10;;;;;;5094373;28;20440;-69
2022/07/15 01:07:39;;;;;;;4.20;3.90;;;21.60;59.70;;;;;;5094537;28;20443;-68
2022/07/15 01:10:07;;;;;;;3.83;3.53;;;21.60;60.40;;;;;;5094332;28;20855;-69
2022/07/15 01:12:35;;;;;;;6.17;4.20;;;21.50;59.50;;;;;;5094211;28;20492;-69
2022/07/15 01:15:01;;;;;;;4.17;3.77;;;21.50;60.60;;;;;;5093504;28;20485;-69
2022/07/15 01:17:29;;;;;;;4.60;3.90;;;21.30;60.00;;;;;;5095144;28;20482;-68
2022/07/15 01:19:56;;;;;;;4.03;3.70;;;21.30;61.20;;;;;;5094150;28;20511;-69
2022/07/15 01:22:24;;;;;;;3.97;3.67;;;21.30;61.20;;;;;;5093915;28;20469;-69
2022/07/15 01:24:51;;;;;;;4.40;4.00;;;21.30;61.30;;;;;;5093984;28;20439;-69
2022/07/15 01:27:18;;;;;;;4.30;3.90;;;21.30;61.20;;;;;;5093952;28;20862;-69
2022/07/15 01:29:45;;;;;;;4.53;3.87;;;21.20;61.60;;;;;;5093938;28;20442;-69
2022/07/15 01:32:12;;;;;;;4.23;3.83;;;21.20;62.00;;;;;;5093638;28;20499;-69
2022/07/15 01:34:39;;;;;;;4.30;4.00;;;21.20;62.00;;;;;;5093865;28;20486;-68
2022/07/15 01:37:06;;;;;;;4.80;4.30;;;21.10;62.40;;;;;;5093709;28;20442;-69
2022/07/15 01:39:34;;;;;;;5.13;3.93;;;21.10;63.20;;;;;;5093769;28;20510;-68
2022/07/15 01:42:01;;;;;;;4.70;4.30;;;21.10;63.90;;;;;;5093835;28;20549;-69
2022/07/15 01:44:28;;;;;;;4.13;3.83;;;20.90;63.70;;;;;;5093946;28;20471;-69
2022/07/15 01:46:55;;;;;;;4.60;4.20;;;20.90;63.80;;;;;;5093720;28;20580;-69
2022/07/15 01:49:25;;;;;;;5.57;4.30;;;20.90;63.50;;;;;;5093776;28;20846;-69
2022/07/15 01:51:54;;;;;;;4.60;4.20;;;20.90;64.00;;;;;;5093889;28;20462;-69
2022/07/15 01:54:22;;;;;;;4.73;3.97;;;20.90;63.80;;;;;;5093172;28;20799;-69
2022/07/15 01:56:51;;;;;;;4.90;4.40;;;20.80;64.80;;;;;;5093630;28;20443;-69
2022/07/15 01:59:18;;;;;;;4.60;4.20;;;20.80;64.60;;;;;;5093498;28;20577;-68
2022/07/15 02:01:46;;;;;;;5.33;4.10;;;20.70;65.00;;;;;;5093486;28;20506;-68
2022/07/15 02:04:13;;;;;;;5.00;4.17;;;20.70;65.00;;;;;;5093175;28;20447;-69
2022/07/15 02:06:39;;;;;;;4.57;4.17;;;20.60;65.10;;;;;;5093425;28;20449;-69
2022/07/15 02:09:07;;;;;;;4.77;4.23;;;20.50;65.60;;;;;;5093443;28;20474;-69
2022/07/15 02:11:35;;;;;;;5.40;4.90;;;20.50;66.00;;;;;;5093424;28;20491;-69
2022/07/15 02:14:04;;;;;;;5.27;4.30;;;20.50;66.20;;;;;;5093197;28;20486;-69
2022/07/15 02:16:31;;;;;;;4.70;4.30;;;20.50;66.40;;;;;;5093334;28;20879;-68
2022/07/15 02:18:58;;;;;;;4.67;4.20;;;20.40;66.00;;;;;;5093392;28;20507;-69
2022/07/15 02:21:26;;;;;;;4.93;4.43;;;20.40;66.00;;;;;;5093295;28;20479;-69
2022/07/15 02:23:53;;;;;;;4.00;3.70;;;20.30;66.50;;;;;;5093469;28;20484;-69
2022/07/15 02:26:20;;;;;;;4.60;4.20;;;20.30;67.60;;;;;;5093419;28;20437;-69
2022/07/15 02:28:48;;;;;;;4.43;4.13;;;20.20;67.00;;;;;;5097231;28;20481;-68
2022/07/15 02:31:16;;;;;;;4.50;4.10;;;20.20;67.20;;;;;;5097347;28;20474;-68
2022/07/15 02:33:43;;;;;;;4.73;4.20;;;20.20;67.40;;;;;;5097241;28;20509;-69
2022/07/15 02:36:10;;;;;;;4.37;3.97;;;20.20;67.30;;;;;;5096977;28;20486;-69
2022/07/15 02:38:38;;;;;;;4.73;4.27;;;20.10;67.50;;;;;;5096920;28;20524;-68
2022/07/15 02:41:05;;;;;;;4.47;3.80;;;20.10;67.50;;;;;;5097126;28;20477;-68
2022/07/15 02:43:32;;;;;;;4.13;3.80;;;20.10;67.20;;;;;;5097115;28;20546;-68
2022/07/15 02:45:59;;;;;;;4.77;4.30;;;20.10;67.00;;;;;;5096924;28;20486;-69
2022/07/15 02:48:27;;;;;;;4.67;4.20;;;20.10;67.10;;;;;;5096965;28;20470;-69
2022/07/15 02:50:54;;;;;;;4.07;3.70;;;20.10;67.20;;;;;;5096957;28;20484;-69
2022/07/15 02:53:25;;;;;;;5.03;4.17;;;20.10;67.40;;;;;;5096778;28;20534;-69
2022/07/15 02:55:52;;;;;;;5.43;4.17;;;20.00;67.30;;;;;;5096743;28;20464;-68
2022/07/15 02:58:19;;;;;;;4.60;4.23;;;20.00;67.80;;;;;;5096749;28;20544;-68
2022/07/15 03:00:46;;;;;;;5.03;4.53;;;20.00;68.00;;;;;;5097029;28;20507;-69
2022/07/15 03:03:13;;;;;;;4.10;3.80;;;19.90;68.20;;;;;;5096640;28;20464;-68
2022/07/15 03:05:41;;;;;;;4.10;3.73;;;19.90;67.70;;;;;;5096623;28;20811;-69
2022/07/15 03:08:08;;;;;;;3.90;3.67;;;19.70;67.40;;;;;;5096663;28;20505;-68
2022/07/15 03:10:35;;;;;;;4.00;3.70;;;19.70;68.70;;;;;;5096682;28;20469;-68
2022/07/15 03:13:02;;;;;;;4.30;3.90;;;19.70;68.40;;;;;;5096504;28;20896;-68
2022/07/15 03:15:29;;;;;;;4.70;4.30;;;19.70;68.90;;;;;;5096375;28;20496;-68
2022/07/15 03:17:56;;;;;;;4.23;3.93;;;19.70;69.40;;;;;;5096448;28;20239;-68
2022/07/15 03:20:23;;;;;;;4.23;3.80;;;19.60;69.20;;;;;;5096352;28;20883;-68
2022/07/15 03:22:51;;;;;;;4.93;4.20;;;19.60;69.30;;;;;;5096388;28;20462;-68
2022/07/15 03:25:18;;;;;;;6.70;4.10;;;19.60;69.60;;;;;;5096181;28;20211;-68
2022/07/15 03:27:45;;;;;;;5.23;4.83;;;19.50;70.40;;;;;;5096276;28;20238;-68
2022/07/15 03:30:12;;;;;;;5.00;4.23;;;19.50;70.90;;;;;;5096170;28;20481;-69
2022/07/15 03:32:39;;;;;;;5.32;4.13;;;19.50;71.20;;;;;;5095947;28;20531;-68
2022/07/15 03:35:07;;;;;;;5.28;4.78;;;19.50;71.70;;;;;;5095948;28;20298;-68
2022/07/15 03:37:34;;;;;;;4.80;4.40;;;19.50;72.30;;;;;;5095550;28;20628;-68
2022/07/15 03:40:02;;;;;;;5.25;4.57;;;19.50;72.50;;;;;;5095978;28;20219;-68
2022/07/15 03:42:29;;;;;;;4.38;4.07;;;19.40;72.40;;;;;;5095804;28;20288;-69
2022/07/15 03:44:56;;;;;;;4.57;4.20;;;19.40;72.30;;;;;;5095797;28;20242;-68
2022/07/15 03:47:23;;;;;;;4.75;4.35;;;19.40;72.40;;;;;;5095882;28;20301;-68
2022/07/15 03:49:50;;;;;;;5.43;4.05;;;19.50;72.10;;;;;;5095882;28;20231;-68
2022/07/15 03:52:16;;;;;;;5.40;4.53;;;19.40;72.30;;;;;;5095892;28;20328;-68
2022/07/15 03:54:43;;;;;;;4.32;3.92;;;19.40;72.40;;;;;;5095268;28;20955;-68
2022/07/15 03:57:11;;;;;;;4.80;4.50;;;19.40;72.60;;;;;;5095376;28;20237;-68
2022/07/15 03:59:38;;;;;;;4.55;4.15;;;19.40;73.00;;;;;;5095603;28;20643;-69
2022/07/15 04:02:05;;;;;;;4.90;4.57;;;19.40;73.20;;;;;;5095530;28;20658;-68
2022/07/15 04:04:32;;;;;;;4.75;4.20;;;19.30;73.80;;;;;;5095460;28;20209;-68
2022/07/15 04:07:00;;;;;;;4.90;4.50;;;19.30;74.20;;;;;;5095650;28;20223;-68
2022/07/15 04:09:27;;;;;;;4.80;4.40;;;19.20;74.70;;;;;;5095398;28;20441;-68
2022/07/15 04:11:54;;;;;;;6.00;4.83;;;19.10;75.40;;;;;;5095312;28;20469;-68
2022/07/15 04:14:23;;;;;;;5.38;4.88;;;19.10;76.80;;;;;;5095001;28;20957;-69
2022/07/15 04:16:50;;;;;;;4.70;4.30;;;19.10;76.60;;;;;;5095339;28;20218;-68
2022/07/15 04:19:16;;;;;;;5.18;4.68;;;19.20;77.80;;;;;;5095042;28;20481;-68
2022/07/15 04:21:43;;;;;;;5.15;4.70;;;19.20;78.40;;;;;;5095167;28;20701;-68
2022/07/15 04:24:11;;;;;;;5.03;4.63;;;19.30;77.70;;;;;;5094712;28;20293;-69
2022/07/15 04:26:38;;;;;;;4.67;4.27;;;19.30;78.90;;;;;;5094817;28;20233;-68
2022/07/15 04:29:04;;;;;;;4.57;4.23;;;19.30;78.30;;;;;;5094857;28;20950;-68
2022/07/15 04:31:34;;;;;;;5.80;5.23;;;19.30;78.70;;;;;;5094910;28;20439;-69
2022/07/15 04:34:00;;;;;;;4.85;4.45;;;19.30;79.20;;;;;;5094766;28;20452;-68
2022/07/15 04:36:27;;;;;;;6.25;5.65;;;19.30;79.80;;;;;;5094880;28;20289;-68
2022/07/15 04:38:54;;;;;;;5.40;5.00;;;19.40;79.90;;;;;;5094734;28;20289;-69
2022/07/15 04:41:21;;;;;;;6.87;5.40;;;19.40;79.60;;;;;;5094940;28;20232;-68
2022/07/15 04:43:48;;;;;;;6.38;5.60;;;19.40;79.80;;;;;;5094558;28;20498;-69
2022/07/15 04:46:15;;;;;;;5.63;5.05;;;19.40;79.30;;;;;;5094706;28;20242;-68
2022/07/15 04:51:27;;;;;;;6.13;5.53;;;19.30;78.70;;;;;;5094258;28;20320;-69
2022/07/15 04:53:54;;;;;;;6.63;5.10;;;19.40;78.70;;;;;;5094164;28;20227;-69
2022/07/15 04:56:21;;;;;;;5.80;5.00;;;19.40;80.60;;;;;;5094500;28;20570;-68
2022/07/15 04:58:48;;;;;;;6.23;5.40;;;19.40;79.30;;;;;;5094402;28;20482;-68
2022/07/15 05:01:15;;;;;;;5.40;4.90;;;19.50;79.30;;;;;;5094223;28;20562;-69
2022/07/15 05:03:43;;;;;;;6.10;5.60;;;19.50;79.80;;;;;;5094315;28;20492;-69
2022/07/15 05:06:10;;;;;;;7.20;6.00;;;19.50;80.90;;;;;;5095229;28;20449;-68
2022/07/15 05:08:37;;;;;;;6.50;5.80;;;19.40;83.00;;;;;;5094289;28;20235;-68
2022/07/15 05:11:04;;;;;;;5.53;5.05;;;19.50;82.50;;;;;;5094224;28;20468;-68
2022/07/15 05:13:31;;;;;;;5.93;5.43;;;19.60;81.90;;;;;;5094190;28;20258;-68
2022/07/15 05:15:58;;;;;;;5.70;5.20;;;19.60;81.10;;;;;;5093991;28;20523;-68
2022/07/15 05:18:25;;;;;;;5.80;5.30;;;19.60;81.40;;;;;;5094032;28;20991;-68
2022/07/15 05:20:54;;;;;;;5.83;5.17;;;19.60;81.80;;;;;;5093706;28;20224;-68
2022/07/15 05:23:21;;;;;;;5.50;5.00;;;19.40;82.60;;;;;;5094671;28;20514;-68
2022/07/15 05:25:48;;;;;;;7.20;5.07;;;19.40;83.60;;;;;;5093827;28;20476;-68
2022/07/15 05:28:14;;;;;;;6.40;5.38;;;19.40;84.00;;;;;;5093837;28;20239;-68
2022/07/15 05:30:41;;;;;;;5.70;5.20;;;19.30;84.20;;;;;;5093857;28;20242;-68
2022/07/15 05:33:09;;;;;;;8.10;5.57;;;19.20;85.70;;;;;;5093588;28;20296;-68
2022/07/15 05:35:35;;;;;;;5.90;5.38;;;19.10;86.10;;;;;;5093761;28;20296;-68
2022/07/15 05:38:04;;;;;;;6.38;5.25;;;18.90;87.70;;;;;;5093750;28;20241;-68
2022/07/15 05:40:30;;;;;;;6.15;5.60;;;18.90;87.40;;;;;;5093661;28;20222;-68
2022/07/15 05:42:58;;;;;;;5.97;5.38;;;18.80;87.60;;;;;;5093441;28;20254;-69
2022/07/15 05:45:24;;;;;;;7.18;5.93;;;18.80;87.70;;;;;;5093650;28;20298;-70
2022/07/15 05:47:52;;;;;;;6.03;5.18;;;18.90;85.80;;;;;;5093641;28;20198;-68
2022/07/15 05:50:20;;;;;;;5.40;4.90;;;18.90;85.20;;;;;;5093712;28;20637;-69
2022/07/15 05:52:47;;;;;;;7.65;4.93;;;19.00;85.40;;;;;;5093164;28;20724;-69
2022/07/15 05:55:15;;;;;;;5.50;5.07;;;19.10;84.50;;;;;;5093412;28;20702;-69
2022/07/15 05:57:42;;;;;;;7.15;5.40;;;19.10;83.70;;;;;;5093571;28;20251;-69
2022/07/15 06:00:10;;;;;;;5.70;5.20;;;19.00;83.10;;;;;;5093475;28;20254;-69
2022/07/15 06:02:37;;;;;;;5.35;4.75;;;19.00;83.80;;;;;;5100162;28;20273;-69
2022/07/15 06:05:05;;;;;;;4.90;4.50;;;19.00;83.10;;;;;;5100212;28;20208;-69
2022/07/15 06:07:31;;;;;;;6.47;4.35;;;19.10;82.80;;;;;;5100307;28;20252;-69
2022/07/15 06:09:58;;;;;;;6.35;4.30;;;19.10;82.70;;;;;;5100377;28;20252;-69
2022/07/15 06:12:27;;;;;;;5.38;4.88;;;19.10;84.10;;;;;;5100111;28;20218;-69
2022/07/15 06:14:53;;;;;;;5.57;4.20;;;19.30;82.10;;;;;;5099854;28;20297;-69
2022/07/15 06:17:20;;;;;;;5.40;4.90;;;19.40;81.00;;;;;;5100022;28;20487;-69
2022/07/15 06:19:47;;;;;;;5.97;5.30;;;19.40;82.80;;;;;;5100194;28;20222;-69
2022/07/15 06:22:17;;;;;;;4.80;4.40;;;19.40;82.90;;;;;;5100039;28;20700;-69
2022/07/15 06:24:44;;;;;;;6.05;5.55;;;19.40;83.30;;;;;;5099953;28;20300;-69
2022/07/15 06:27:11;;;;;;;5.50;5.00;;;19.40;82.90;;;;;;5099995;28;20313;-69
2022/07/15 06:29:39;;;;;;;4.95;4.45;;;19.40;82.60;;;;;;5100081;28;20540;-69
2022/07/15 06:32:07;;;;;;;5.80;4.23;;;19.40;84.00;;;;;;5100364;28;20251;-69
2022/07/15 06:34:34;;;;;;;4.03;3.60;;;19.40;82.30;;;;;;5099952;28;20501;-69
2022/07/15 06:37:01;;;;;;;4.47;3.70;;;19.40;79.30;;;;;;5100018;28;20473;-68
2022/07/15 06:39:28;;;;;;;5.40;3.40;;;19.50;75.80;;;;;;5099940;28;20873;-69
2022/07/15 06:41:54;;;;;;;4.20;3.80;;;19.50;75.90;;;;;;5099801;28;20498;-69
2022/07/15 06:44:21;;;;;;;3.97;3.67;;;19.70;76.80;;;;;;5099853;28;20445;-69
2022/07/15 06:46:49;;;;;;;3.97;3.67;;;19.70;78.00;;;;;;5099947;28;20485;-69
2022/07/15 06:49:16;;;;;;;5.73;4.17;;;19.70;77.00;;;;;;5099818;28;20477;-69
2022/07/15 06:51:43;;;;;;;4.83;4.00;;;19.70;78.00;;;;;;5099841;28;20472;-69
2022/07/15 06:54:11;;;;;;;5.07;4.47;;;19.80;76.70;;;;;;5099346;28;20897;-69
2022/07/15 06:56:38;;;;;;;4.10;3.80;;;19.90;76.90;;;;;;5100239;28;20450;-69
2022/07/15 06:59:05;;;;;;;5.00;4.50;;;20.00;76.70;;;;;;5099635;28;20447;-69
2022/07/15 07:01:32;;;;;;;4.37;3.97;;;20.10;76.20;;;;;;5099709;28;20488;-69
2022/07/15 07:04:00;;;;;;;6.17;4.10;;;20.10;75.90;;;;;;5099376;28;20932;-69
2022/07/15 07:06:27;;;;;;;5.03;3.30;;;20.40;76.00;;;;;;5099614;28;20575;-69
2022/07/15 07:08:54;;;;;;;4.70;4.17;;;20.50;74.40;;;;;;5099718;28;20848;-69
2022/07/15 07:11:21;;;;;;;4.20;3.80;;;20.90;74.40;;;;;;5099735;28;20478;-69
2022/07/15 07:13:49;;;;;;;6.87;3.57;;;21.10;72.70;;;;;;5096043;28;20509;-69
2022/07/15 07:16:16;;;;;;;4.43;3.70;;;21.30;70.30;;;;;;5096449;28;20945;-69
2022/07/15 07:18:45;;;;;;;3.83;3.50;;;21.40;70.00;;;;;;5096722;28;20436;-69
2022/07/15 07:21:13;;;;;;;3.97;3.57;;;21.50;67.80;;;;;;5096378;28;20472;-69
2022/07/15 07:23:40;;;;;;;4.17;3.60;;;21.50;65.90;;;;;;5095980;28;20481;-70
2022/07/15 07:26:08;;;;;;;4.10;3.73;;;21.60;64.90;;;;;;5096438;28;20873;-69
2022/07/15 07:28:35;;;;;;;4.43;3.40;;;21.90;65.80;;;;;;5096307;28;20475;-69
2022/07/15 07:31:02;;;;;;;3.37;3.07;;;22.10;65.30;;;;;;5096238;28;20865;-69
2022/07/15 07:33:29;;;;;;;3.73;3.17;;;22.30;63.90;;;;;;5096169;28;20526;-69
2022/07/15 07:35:56;;;;;;;4.00;3.17;;;22.20;63.70;;;;;;5095946;28;20810;-69
2022/07/15 07:38:24;;;;;;;3.27;3.07;;;22.60;63.90;;;;;;5096106;28;20436;-69
2022/07/15 07:40:52;;;;;;;3.70;3.30;;;22.70;62.10;;;;;;5096003;28;20476;-69
2022/07/15 07:43:19;;;;;;;3.37;3.07;;;22.50;60.00;;;;;;5096123;28;20464;-69
2022/07/15 07:45:47;;;;;;;2.93;2.73;;;22.30;59.80;;;;;;5095762;28;20462;-69
2022/07/15 07:48:14;;;;;;;3.40;3.10;;;22.20;59.60;;;;;;5095934;28;20480;-69
2022/07/15 07:50:41;;;;;;;3.20;3.00;;;22.40;59.70;;;;;;5095794;28;20483;-69
2022/07/15 07:53:08;;;;;;;3.03;2.83;;;22.90;58.30;;;;;;5095701;28;20515;-69
2022/07/15 07:55:36;;;;;;;3.17;2.87;;;23.60;55.80;;;;;;5095468;28;20964;-69
2022/07/15 07:58:03;;;;;;;4.30;3.03;;;24.40;54.00;;;;;;5095601;28;20456;-69
2022/07/15 08:00:31;;;;;;;3.50;3.20;;;25.20;52.20;;;;;;5095524;28;20507;-69
2022/07/15 08:03:00;;;;;;;3.10;2.83;;;25.80;50.10;;;;;;5095381;28;20495;-69
2022/07/15 08:05:28;;;;;;;3.30;3.00;;;26.00;49.80;;;;;;5095431;28;20471;-69
2022/07/15 08:08:07;;;;;;;3.57;3.20;;;26.40;49.20;;;;;;5095632;28;20483;-69
2022/07/15 08:10:36;;;;;;;3.10;2.90;;;26.30;48.10;;;;;;5095624;28;20511;-69
2022/07/15 08:13:03;;;;;;;3.43;3.13;;;26.90;47.60;;;;;;5095317;28;20986;-69
2022/07/15 08:15:30;;;;;;;3.33;3.03;;;27.60;46.40;;;;;;5095012;28;20484;-70
2022/07/15 08:17:57;;;;;;;3.70;3.30;;;27.60;45.90;;;;;;5095468;28;20471;-69
2022/07/15 08:20:24;;;;;;;2.77;2.57;;;27.20;46.30;;;;;;5095363;28;20837;-69
2022/07/15 08:22:57;;;;;;;3.20;3.00;;;26.50;46.90;;;;;;5094986;28;20499;-69
2022/07/15 08:25:24;;;;;;;3.53;3.00;;;25.90;48.40;;;;;;5093937;28;20444;-69
2022/07/15 08:27:53;;;;;;;3.50;2.90;;;25.50;49.10;;;;;;5095202;28;20443;-69
2022/07/15 08:30:20;;;;;;;3.63;3.33;;;25.10;49.70;;;;;;5095112;28;20483;-69
2022/07/15 08:32:46;;;;;;;2.87;2.67;;;25.40;49.70;;;;;;5094763;28;20507;-69
2022/07/15 08:35:13;;;;;;;3.73;3.00;;;25.60;49.60;;;;;;5095117;28;20483;-69
2022/07/15 08:37:40;;;;;;;3.60;3.10;;;25.50;48.70;;;;;;5095047;28;20475;-69
2022/07/15 08:40:09;;;;;;;3.50;2.90;;;25.60;47.50;;;;;;5095107;28;20479;-69
2022/07/15 08:42:39;;;;;;;3.20;2.90;;;25.90;47.20;;;;;;5094849;28;20476;-69
2022/07/15 08:45:08;;;;;;;4.37;3.13;;;26.20;46.80;;;;;;5094780;28;20496;-69
2022/07/15 08:47:37;;;;;;;3.73;3.17;;;26.60;47.70;;;;;;5094873;28;20497;-69
2022/07/15 08:50:06;;;;;;;3.10;2.90;;;27.70;45.90;;;;;;5094803;28;20469;-69
2022/07/15 08:52:34;;;;;;;2.80;2.60;;;28.40;44.00;;;;;;5094639;28;20495;-70
2022/07/15 08:55:01;;;;;;;3.50;2.80;;;29.60;43.10;;;;;;5094832;28;20435;-70
2022/07/15 08:57:29;;;;;;;2.90;2.70;;;29.50;41.80;;;;;;5094406;28;20523;-69
2022/07/15 08:59:56;;;;;;;3.40;3.13;;;29.10;42.10;;;;;;5094418;28;20848;-67
2022/07/15 09:02:24;;;;;;;3.70;3.07;;;29.30;41.70;;;;;;5094417;28;20567;-67
2022/07/15 09:05:21;;;;;;;4.10;3.27;;;29.90;41.60;;;;;;5094443;28;20473;-67
2022/07/15 09:08:01;;;;;;;3.30;3.00;;;30.70;40.20;;;;;;5094645;28;20464;-67
2022/07/15 09:10:49;;;;;;;3.03;2.80;;;30.40;39.40;;;;;;5094799;28;20485;-67
2022/07/15 09:13:28;;;;;;;3.80;3.50;;;31.60;39.70;;;;;;5094419;28;20474;-67
2022/07/15 09:15:56;;;;;;;3.50;3.20;;;32.50;36.90;;;;;;5094077;28;20961;-67
2022/07/15 09:18:26;;;;;;;3.40;3.10;;;32.80;36.50;;;;;;5094064;28;20942;-67
2022/07/15 09:20:54;;;;;;;3.93;3.63;;;32.40;36.30;;;;;;5094560;28;20555;-67
2022/07/15 09:23:29;;;;;;;3.70;3.40;;;32.30;36.70;;;;;;5094203;28;20510;-67
2022/07/15 09:25:58;;;;;;;3.30;3.10;;;33.30;35.20;;;;;;5094054;28;20930;-68
2022/07/15 09:28:37;;;;;;;4.17;3.23;;;34.00;34.70;;;;;;5094082;28;20451;-68
2022/07/15 09:33:52;;;;;;;4.13;3.40;;;36.30;31.70;;;;;;5093590;28;20505;-68
2022/07/15 09:36:21;;;;;;;4.70;3.20;;;36.50;31.00;;;;;;5093430;28;20444;-67
2022/07/15 09:38:50;;;;;;;3.30;3.00;;;36.00;31.30;;;;;;5093884;28;20471;-67
2022/07/15 09:41:29;;;;;;;3.20;3.00;;;34.60;32.60;;;;;;5093862;28;20476;-67
2022/07/15 09:43:59;;;;;;;3.80;3.50;;;33.20;34.80;;;;;;5093861;28;20479;-67
2022/07/15 09:46:28;;;;;;;3.40;3.10;;;32.70;35.90;;;;;;5093911;28;20472;-67
2022/07/15 09:48:57;;;;;;;3.53;3.00;;;32.80;35.40;;;;;;5093853;28;20435;-67
2022/07/15 09:51:24;;;;;;;3.57;3.30;;;33.40;34.90;;;;;;5093756;28;20918;-68
2022/07/15 09:53:51;;;;;;;3.70;3.40;;;33.20;34.10;;;;;;5093430;28;20489;-67
2022/07/15 09:56:25;;;;;;;3.67;3.33;;;31.60;35.50;;;;;;5093809;28;20473;-67
2022/07/15 09:58:53;;;;;;;3.50;3.20;;;30.90;37.40;;;;;;5093743;28;20475;-67
2022/07/15 10:01:20;;;;;;;3.53;3.23;;;31.10;37.40;;;;;;5093542;28;20802;-67
2022/07/15 10:03:49;;;;;;;3.67;3.47;;;32.10;36.40;;;;;;5093473;28;20500;-68
2022/07/15 10:06:19;;;;;;;8.30;7.60;;;32.10;35.70;;;;;;5093622;28;20447;-67
2022/07/15 10:08:48;;;;;;;3.67;3.37;;;32.60;36.20;;;;;;5093685;28;20458;-67
2022/07/15 10:11:16;;;;;;;3.17;2.97;;;32.90;34.90;;;;;;5093695;28;20436;-67
2022/07/15 10:14:30;;;;;;;4.10;3.80;;;33.90;34.30;;;;;;5093432;28;20499;-70
2022/07/15 10:17:35;;;;;;;3.40;3.10;;;35.20;32.60;;;;;;5093700;28;20472;-67
2022/07/15 10:20:22;;;;;;;3.50;3.20;;;35.20;31.40;;;;;;5093483;28;20483;-67
2022/07/15 10:22:58;;;;;;;3.50;3.20;;;34.50;32.00;;;;;;5093191;28;20487;-68
2022/07/15 10:25:43;;;;;;;4.33;3.93;;;33.50;32.90;;;;;;5093392;28;20934;-67
2022/07/15 10:28:14;;;;;;;3.40;3.10;;;33.60;33.30;;;;;;5093548;28;20468;-67
2022/07/15 10:30:42;;;;;;;3.80;3.50;;;34.00;33.10;;;;;;5093498;28;20836;-67
2022/07/15 10:33:16;;;;;;;3.43;3.23;;;33.30;33.80;;;;;;5093109;28;21008;-67
2022/07/15 10:35:46;;;;;;;3.77;3.47;;;32.60;34.90;;;;;;5093170;28;20498;-68
2022/07/15 10:38:32;;;;;;;4.00;3.60;;;31.90;35.80;;;;;;5093842;28;20484;-67
2022/07/15 10:41:08;;;;;;;4.07;3.77;;;31.60;35.70;;;;;;5093360;28;20485;-67
2022/07/15 10:43:46;;;;;;;3.87;3.50;;;32.30;36.30;;;;;;5093248;28;20471;-67
2022/07/15 10:46:20;;;;;;;3.80;3.53;;;31.80;36.00;;;;;;5093315;28;20479;-67
2022/07/15 10:48:49;;;;;;;3.87;3.47;;;31.30;36.80;;;;;;5095452;28;20921;-67
2022/07/15 10:51:46;;;;;;;3.57;3.27;;;31.30;37.00;;;;;;5097087;28;20445;-67
2022/07/15 10:54:49;;;;;;;3.63;3.33;;;30.90;37.70;;;;;;5096567;28;20509;-68
2022/07/15 10:57:19;;;;;;;3.60;3.30;;;29.50;39.20;;;;;;5097061;28;20858;-69
2022/07/15 10:59:56;;;;;;;3.80;3.50;;;28.70;41.00;;;;;;5096910;28;20449;-69
2022/07/15 11:02:25;;;;;;;3.50;3.30;;;28.50;41.20;;;;;;5096716;28;20491;-69
2022/07/15 11:05:13;;;;;;;4.03;3.53;;;27.90;41.50;;;;;;5096657;28;20468;-69
2022/07/15 11:07:41;;;;;;;5.30;4.90;;;27.50;42.70;;;;;;5096951;28;20483;-69
2022/07/15 11:10:20;;;;;;;3.80;3.50;;;27.40;44.30;;;;;;5096425;28;20922;-69
2022/07/15 11:13:02;;;;;;;3.40;3.20;;;27.80;44.40;;;;;;5096497;28;20487;-69
2022/07/15 11:15:29;;;;;;;7.23;6.63;;;28.10;43.50;;;;;;5096222;28;20476;-69
2022/07/15 11:17:58;;;;;;;5.27;4.67;;;28.30;43.30;;;;;;5096696;28;20855;-69
2022/07/15 11:20:27;;;;;;;4.43;4.13;;;28.50;43.20;;;;;;5096565;28;20464;-67
2022/07/15 11:22:57;;;;;;;4.40;4.00;;;28.90;42.00;;;;;;5096266;28;20490;-67
2022/07/15 11:25:26;;;;;;;3.97;3.60;;;28.70;42.30;;;;;;5096314;28;20455;-69
2022/07/15 11:28:02;;;;;;;4.53;4.17;;;28.40;41.80;;;;;;5096514;28;20471;-69
2022/07/15 11:30:32;;;;;;;4.20;3.90;;;28.00;42.60;;;;;;5096173;28;20937;-69
2022/07/15 11:33:01;;;;;;;4.70;4.30;;;27.70;42.40;;;;;;5096055;28;20463;-69
2022/07/15 11:35:29;;;;;;;4.27;3.87;;;27.70;43.20;;;;;;5096173;28;20480;-69
2022/07/15 11:38:05;;;;;;;4.73;4.23;;;27.70;43.90;;;;;;5096194;28;20917;-69
2022/07/15 11:46:06;;;;;;;5.20;3.97;;;26.80;44.50;;;;;;5095960;28;20415;-69
2022/07/15 11:48:37;;;;;;;4.20;3.90;;;26.40;45.80;;;;;;5095729;28;20479;-69
2022/07/15 11:51:05;;;;;;;4.43;4.10;;;26.10;47.00;;;;;;5095986;28;20437;-69
2022/07/15 11:53:38;;;;;;;4.80;4.40;;;25.90;46.80;;;;;;5095679;28;20507;-69
2022/07/15 11:56:05;;;;;;;4.60;4.30;;;25.90;47.60;;;;;;5095933;28;20479;-69
2022/07/15 11:58:34;;;;;;;6.10;4.20;;;26.00;47.40;;;;;;5095430;28;20525;-69
2022/07/15 12:01:05;;;;;;;4.10;3.80;;;26.30;46.60;;;;;;5096362;28;20476;-69
2022/07/15 12:03:34;;;;;;;5.63;3.93;;;26.50;46.70;;;;;;5095863;28;20543;-69
2022/07/15 12:06:06;;;;;;;4.87;4.47;;;26.60;46.50;;;;;;5095558;28;20467;-69
2022/07/15 12:08:40;;;;;;;4.40;4.00;;;26.60;45.70;;;;;;5095812;28;20475;-69
2022/07/15 12:11:14;;;;;;;4.40;4.00;;;26.60;46.60;;;;;;5095532;28;20439;-69
2022/07/15 12:13:46;;;;;;;4.57;4.17;;;26.80;46.20;;;;;;5095691;28;20581;-70
2022/07/15 12:16:14;;;;;;;5.20;4.43;;;26.80;46.30;;;;;;5095561;28;20440;-69
2022/07/15 12:18:41;;;;;;;5.00;4.50;;;26.50;46.30;;;;;;5095768;28;20471;-69
2022/07/15 12:21:09;;;;;;;4.20;3.90;;;26.30;46.60;;;;;;5095314;28;20476;-69
2022/07/15 12:23:37;;;;;;;4.60;4.20;;;26.20;47.10;;;;;;5095254;28;20495;-69
2022/07/15 12:26:05;;;;;;;4.40;4.10;;;26.30;47.20;;;;;;5095075;28;20479;-69
2022/07/15 12:28:33;;;;;;;5.97;4.10;;;26.60;46.70;;;;;;5095194;28;20472;-69
2022/07/15 12:31:00;;;;;;;4.40;4.10;;;26.50;46.60;;;;;;5095115;28;20956;-69
2022/07/15 12:33:27;;;;;;;5.97;5.47;;;26.50;46.20;;;;;;5094938;28;20513;-69
2022/07/15 12:36:13;;;;;;;4.50;4.20;;;26.40;46.90;;;;;;5095150;28;20911;-69
2022/07/15 12:38:42;;;;;;;5.73;4.13;;;26.20;46.80;;;;;;5094104;28;20452;-69
2022/07/15 12:41:10;;;;;;;4.70;4.23;;;26.00;47.40;;;;;;5094901;28;20447;-69
2022/07/15 12:43:48;;;;;;;4.27;3.97;;;25.90;47.70;;;;;;5094892;28;20512;-69
2022/07/15 12:46:15;;;;;;;4.10;3.77;;;25.90;47.30;;;;;;5094800;28;20443;-70
2022/07/15 12:48:46;;;;;;;4.43;4.03;;;25.80;47.70;;;;;;5094549;28;20490;-69
2022/07/15 12:51:14;;;;;;;4.27;3.87;;;25.90;48.00;;;;;;5094742;28;20791;-69
2022/07/15 12:53:42;;;;;;;4.43;4.10;;;25.90;48.00;;;;;;5094244;28;20486;-70
2022/07/15 12:56:10;;;;;;;4.77;4.37;;;25.80;48.40;;;;;;5094885;28;20471;-69
2022/07/15 12:58:37;;;;;;;4.50;4.20;;;25.80;47.50;;;;;;5094755;28;20444;-69
2022/07/15 13:01:07;;;;;;;4.70;4.27;;;25.90;47.60;;;;;;5094565;28;20501;-69
2022/07/15 13:03:34;;;;;;;3.80;3.53;;;26.10;47.90;;;;;;5094200;28;20490;-69
2022/07/15 13:06:02;;;;;;;6.53;5.90;;;26.30;47.90;;;;;;5094200;28;20471;-69
2022/07/15 13:08:31;;;;;;;6.10;5.20;;;26.70;48.60;;;;;;5094569;28;20451;-69